Time;durP1;ratioP1;P1;durP2;ratioP2;P2;SDS_P1;SDS_P2;PMS_P1;PMS_P2;Temp;Humidity;BMP_temperature;BMP_pressure;BME280_temperature;BME280_humidity;BME280_pressure;Samples;Min_cycle;Max_cycle;Signal;HPM_P1;HPM_P2
2022/10/27 00:00:06;;;;;;;14.20;6.37;;;13.80;95.00;;;;;;5027218;28;20486;-69
2022/10/27 00:02:32;;;;;;;11.03;5.90;;;13.90;95.00;;;;;;5030604;28;20187;-71
2022/10/27 00:04:57;;;;;;;11.57;5.40;;;13.80;95.00;;;;;;5034030;28;20432;-70
2022/10/27 00:07:23;;;;;;;16.17;5.60;;;13.80;95.20;;;;;;5034381;28;20212;-70
2022/10/27 00:09:49;;;;;;;10.00;5.70;;;13.80;95.20;;;;;;5030535;28;20237;-71
2022/10/27 00:12:14;;;;;;;16.23;6.20;;;13.80;95.30;;;;;;5033089;28;20216;-70
2022/10/27 00:14:40;;;;;;;14.80;6.50;;;13.70;95.20;;;;;;5033394;28;20185;-70
2022/10/27 00:17:06;;;;;;;17.03;6.20;;;13.70;95.30;;;;;;5033502;28;20242;-70
2022/10/27 00:19:32;;;;;;;16.00;6.00;;;13.60;95.40;;;;;;5031025;28;20498;-69
2022/10/27 00:21:57;;;;;;;14.00;6.07;;;13.60;95.60;;;;;;5034884;28;20185;-70
2022/10/27 00:24:23;;;;;;;11.73;6.30;;;13.60;95.60;;;;;;5034183;28;20235;-70
2022/10/27 00:26:48;;;;;;;14.03;6.03;;;13.60;95.60;;;;;;5027862;28;20276;-70
2022/10/27 00:29:14;;;;;;;10.67;6.00;;;13.60;95.60;;;;;;5032695;28;20562;-70
2022/10/27 00:31:40;;;;;;;9.73;5.50;;;13.60;95.60;;;;;;5032541;28;20676;-69
2022/10/27 00:34:05;;;;;;;11.23;5.40;;;13.50;95.60;;;;;;5033983;28;20204;-71
2022/10/27 00:36:31;;;;;;;15.00;6.10;;;13.50;95.60;;;;;;5033226;28;20251;-71
2022/10/27 00:38:58;;;;;;;16.57;6.50;;;13.40;95.60;;;;;;5031685;28;20213;-70
2022/10/27 00:41:41;;;;;;;12.90;7.07;;;13.40;95.70;;;;;;5032949;28;20185;-69
2022/10/27 00:44:28;;;;;;;15.63;6.13;;;13.30;95.70;;;;;;5029022;28;20948;-71
2022/10/27 00:46:54;;;;;;;15.47;6.03;;;13.30;95.80;;;;;;5029912;28;20432;-70
2022/10/27 00:49:25;;;;;;;7.97;5.60;;;13.40;95.80;;;;;;5030156;28;20472;-69
2022/10/27 00:52:01;;;;;;;15.07;6.70;;;13.40;95.50;;;;;;5029946;28;20193;-70
2022/10/27 00:54:31;;;;;;;16.20;6.70;;;13.30;95.40;;;;;;5036183;28;20485;-70
2022/10/27 00:56:57;;;;;;;11.00;5.90;;;13.30;95.60;;;;;;5033663;28;20526;-70
2022/10/27 00:59:23;;;;;;;18.50;6.00;;;13.30;95.80;;;;;;5035682;28;20471;-70
2022/10/27 01:01:51;;;;;;;10.00;6.00;;;13.20;95.70;;;;;;5037127;28;20420;-71
2022/10/27 01:04:31;;;;;;;19.73;7.73;;;13.20;95.80;;;;;;5044741;28;20424;-69
2022/10/27 01:06:58;;;;;;;11.67;6.23;;;13.00;95.80;;;;;;5047296;28;20459;-70
2022/10/27 01:09:25;;;;;;;13.30;6.90;;;13.00;96.00;;;;;;5045966;28;20463;-70
2022/10/27 01:11:50;;;;;;;10.93;5.57;;;13.10;96.10;;;;;;5033606;28;20521;-70
2022/10/27 01:14:16;;;;;;;12.23;5.77;;;13.10;95.80;;;;;;5026722;28;20920;-71
2022/10/27 01:17:02;;;;;;;12.20;5.87;;;13.10;95.50;;;;;;5031955;28;20248;-70
2022/10/27 01:19:52;;;;;;;13.57;6.17;;;13.00;95.40;;;;;;5017608;28;20244;-70
2022/10/27 01:22:48;;;;;;;8.17;5.43;;;13.00;95.60;;;;;;5028150;28;20928;-71
2022/10/27 01:25:52;;;;;;;12.17;5.77;;;12.90;95.70;;;;;;5029817;28;20768;-70
2022/10/27 01:28:17;;;;;;;11.23;7.13;;;12.90;96.10;;;;;;5024451;28;20427;-70
2022/10/27 01:31:13;;;;;;;14.23;5.93;;;12.90;96.10;;;;;;5029009;28;20439;-70
2022/10/27 01:33:38;;;;;;;12.03;5.33;;;12.90;96.40;;;;;;5028265;28;20197;-71
2022/10/27 01:36:14;;;;;;;21.67;6.20;;;12.90;96.50;;;;;;5023751;28;20952;-70
2022/10/27 01:38:49;;;;;;;14.23;6.13;;;12.90;96.40;;;;;;5026811;28;20213;-70
2022/10/27 01:41:27;;;;;;;11.23;5.37;;;12.90;96.60;;;;;;5023198;28;20420;-70
2022/10/27 01:43:58;;;;;;;14.27;5.87;;;12.80;96.70;;;;;;5029151;28;20482;-69
2022/10/27 01:46:24;;;;;;;17.30;6.57;;;12.90;96.80;;;;;;5031167;28;20463;-72
2022/10/27 01:48:50;;;;;;;25.17;6.80;;;12.80;96.80;;;;;;5025856;28;20468;-70
2022/10/27 01:51:16;;;;;;;19.23;6.80;;;12.80;97.00;;;;;;5029151;28;20428;-69
2022/10/27 01:53:47;;;;;;;12.33;6.03;;;12.80;96.80;;;;;;5030606;28;20931;-71
2022/10/27 01:56:37;;;;;;;14.30;5.67;;;12.70;96.20;;;;;;5029874;28;20646;-71
2022/10/27 01:59:27;;;;;;;18.33;7.13;;;12.60;96.00;;;;;;5022527;28;20493;-73
2022/10/27 02:02:01;;;;;;;12.93;7.60;;;12.50;95.90;;;;;;5027390;28;20933;-68
2022/10/27 02:04:29;;;;;;;18.00;7.10;;;12.50;96.20;;;;;;5030371;28;20418;-69
2022/10/27 02:07:02;;;;;;;13.37;6.77;;;12.50;96.60;;;;;;5029051;28;20538;-70
2022/10/27 02:09:44;;;;;;;20.40;6.33;;;12.50;96.80;;;;;;5024946;28;20893;-70
2022/10/27 02:12:36;;;;;;;12.60;6.17;;;12.60;97.00;;;;;;5028619;28;20510;-71
2022/10/27 02:15:06;;;;;;;12.53;6.57;;;12.60;97.10;;;;;;5030433;28;20454;-69
2022/10/27 02:17:38;;;;;;;17.13;7.90;;;12.60;97.10;;;;;;5029732;28;20562;-69
2022/10/27 02:20:09;;;;;;;15.63;7.07;;;12.60;97.10;;;;;;5024183;28;20470;-73
2022/10/27 02:22:37;;;;;;;14.63;7.00;;;12.50;97.20;;;;;;5028395;28;20930;-71
2022/10/27 02:25:03;;;;;;;12.43;6.80;;;12.50;97.30;;;;;;5026537;28;20426;-72
2022/10/27 02:27:34;;;;;;;15.70;6.50;;;12.60;97.40;;;;;;5030177;28;20931;-70
2022/10/27 02:30:02;;;;;;;15.13;7.67;;;12.50;97.40;;;;;;5027536;28;20466;-72
2022/10/27 02:32:28;;;;;;;19.37;7.73;;;12.60;97.40;;;;;;5029905;28;20438;-71
2022/10/27 02:34:55;;;;;;;16.77;8.47;;;12.60;97.30;;;;;;5029764;28;20435;-72
2022/10/27 02:37:29;;;;;;;14.80;8.20;;;12.50;97.30;;;;;;5030192;28;20479;-71
2022/10/27 02:39:55;;;;;;;22.60;8.50;;;12.50;97.40;;;;;;5024417;28;20467;-72
2022/10/27 02:42:20;;;;;;;24.30;7.97;;;12.60;97.50;;;;;;5029775;28;20501;-70
2022/10/27 02:44:46;;;;;;;12.67;7.77;;;12.50;97.40;;;;;;5027606;28;20192;-69
2022/10/27 02:47:11;;;;;;;13.77;7.40;;;12.50;97.40;;;;;;5030047;28;20192;-71
2022/10/27 02:49:37;;;;;;;14.40;7.90;;;12.50;97.50;;;;;;5026723;28;20303;-71
2022/10/27 02:52:03;;;;;;;17.17;7.73;;;12.50;97.50;;;;;;5027381;28;20189;-70
2022/10/27 02:54:30;;;;;;;16.77;8.17;;;12.60;97.60;;;;;;5028169;28;20228;-69
2022/10/27 02:56:56;;;;;;;17.63;7.33;;;12.60;97.50;;;;;;5030097;28;20495;-71
2022/10/27 02:59:21;;;;;;;12.27;7.30;;;12.60;97.40;;;;;;5031811;28;20850;-69
2022/10/27 03:01:47;;;;;;;13.77;7.27;;;12.50;97.40;;;;;;5028970;28;20446;-68
2022/10/27 03:04:12;;;;;;;16.13;8.00;;;12.50;97.40;;;;;;5029660;28;20185;-69
2022/10/27 03:06:38;;;;;;;16.97;8.70;;;12.50;97.40;;;;;;5029455;28;20670;-70
2022/10/27 03:09:04;;;;;;;17.03;7.30;;;12.60;97.40;;;;;;5021234;28;20225;-69
2022/10/27 03:11:30;;;;;;;14.53;8.00;;;12.50;97.30;;;;;;5032272;28;20209;-72
2022/10/27 03:13:55;;;;;;;14.13;7.57;;;12.50;97.30;;;;;;5031962;28;20193;-72
2022/10/27 03:16:21;;;;;;;18.00;8.70;;;12.50;97.30;;;;;;5033059;28;20471;-73
2022/10/27 03:18:46;;;;;;;21.50;7.77;;;12.50;97.40;;;;;;5027588;28;20216;-71
2022/10/27 03:21:12;;;;;;;14.93;8.00;;;12.40;97.30;;;;;;5029264;28;20196;-71
2022/10/27 03:23:37;;;;;;;14.27;8.23;;;12.40;97.40;;;;;;5029118;28;20196;-69
2022/10/27 03:26:03;;;;;;;14.77;8.57;;;12.40;97.40;;;;;;5030253;28;20215;-70
2022/10/27 03:28:33;;;;;;;18.73;8.57;;;12.40;97.40;;;;;;5027279;28;20209;-69
2022/10/27 03:31:03;;;;;;;16.00;8.60;;;12.30;97.40;;;;;;5027279;28;20683;-69
2022/10/27 03:33:28;;;;;;;19.23;8.03;;;12.30;97.50;;;;;;5029560;28;20509;-70
2022/10/27 03:35:54;;;;;;;14.20;8.17;;;12.30;97.50;;;;;;5029348;28;20428;-71
2022/10/27 03:38:19;;;;;;;18.43;8.67;;;12.30;97.50;;;;;;5031117;28;20217;-69
2022/10/27 03:40:45;;;;;;;15.77;8.90;;;12.40;97.60;;;;;;5032619;28;20745;-69
2022/10/27 03:43:11;;;;;;;13.53;6.87;;;12.40;97.50;;;;;;5033502;28;20196;-70
2022/10/27 03:45:36;;;;;;;12.30;7.80;;;12.40;97.50;;;;;;5034026;28;20239;-72
2022/10/27 03:48:12;;;;;;;17.63;9.43;;;12.40;97.50;;;;;;5030743;28;20214;-68
2022/10/27 03:50:38;;;;;;;11.13;7.23;;;12.30;97.40;;;;;;5028913;28;20196;-71
2022/10/27 03:53:04;;;;;;;15.03;7.37;;;12.30;97.40;;;;;;5026050;28;20772;-72
2022/10/27 03:55:31;;;;;;;19.03;7.90;;;12.30;97.40;;;;;;5032984;28;20434;-72
2022/10/27 03:57:58;;;;;;;12.70;8.20;;;12.30;97.40;;;;;;5028602;28;20537;-69
2022/10/27 04:00:23;;;;;;;22.93;10.50;;;12.30;97.40;;;;;;5028881;28;20463;-70
2022/10/27 04:02:53;;;;;;;15.43;7.93;;;12.30;97.40;;;;;;5032767;28;20919;-70
2022/10/27 04:05:19;;;;;;;17.20;8.07;;;12.20;97.30;;;;;;5032717;28;20481;-72
2022/10/27 04:07:45;;;;;;;17.87;8.90;;;12.20;97.50;;;;;;5033070;28;20428;-70
2022/10/27 04:10:11;;;;;;;16.13;8.27;;;12.20;97.50;;;;;;5036556;28;20543;-70
2022/10/27 04:12:36;;;;;;;18.90;9.10;;;12.30;97.60;;;;;;5040384;28;20470;-70
2022/10/27 04:15:02;;;;;;;15.47;8.10;;;12.30;97.50;;;;;;5040614;28;20223;-70
2022/10/27 04:17:28;;;;;;;19.17;9.30;;;12.30;97.40;;;;;;5040073;28;20216;-72
2022/10/27 04:19:53;;;;;;;13.47;7.80;;;12.20;97.20;;;;;;5034220;28;20685;-71
2022/10/27 04:22:19;;;;;;;17.33;8.77;;;12.20;97.40;;;;;;5033242;28;20193;-70
2022/10/27 04:24:44;;;;;;;19.13;9.63;;;12.10;97.40;;;;;;5034384;28;20291;-71
2022/10/27 04:27:10;;;;;;;15.17;8.83;;;12.20;97.50;;;;;;5036690;28;20205;-69
2022/10/27 04:29:35;;;;;;;17.03;8.23;;;12.20;97.50;;;;;;5034905;28;20208;-70
2022/10/27 04:32:01;;;;;;;16.60;7.60;;;12.10;97.50;;;;;;5032901;28;20258;-72
2022/10/27 04:34:26;;;;;;;15.37;8.80;;;12.10;97.50;;;;;;5036608;28;20189;-71
2022/10/27 04:36:54;;;;;;;16.80;8.23;;;12.10;97.60;;;;;;5037679;28;20220;-70
2022/10/27 04:39:19;;;;;;;24.20;7.90;;;12.20;97.60;;;;;;5033046;28;20209;-72
2022/10/27 04:41:45;;;;;;;17.10;8.67;;;12.20;97.60;;;;;;5030133;28;20436;-71
2022/10/27 04:44:10;;;;;;;17.03;8.97;;;12.20;97.50;;;;;;5029726;28;20696;-70
2022/10/27 04:46:37;;;;;;;16.60;9.00;;;12.10;97.50;;;;;;5034123;28;20219;-71
2022/10/27 04:49:02;;;;;;;15.23;8.30;;;12.10;97.40;;;;;;5029221;28;20235;-70
2022/10/27 04:51:28;;;;;;;21.63;9.27;;;12.10;97.40;;;;;;5039856;28;20423;-73
2022/10/27 04:53:53;;;;;;;16.60;7.93;;;12.10;97.50;;;;;;5039639;28;20197;-71
2022/10/27 04:56:19;;;;;;;20.23;7.50;;;12.10;97.50;;;;;;5038710;28;20205;-70
2022/10/27 04:58:44;;;;;;;13.87;8.17;;;12.10;97.50;;;;;;5029851;28;20208;-71
2022/10/27 05:01:12;;;;;;;22.00;10.57;;;12.10;97.30;;;;;;5032757;28;20621;-69
2022/10/27 05:03:37;;;;;;;18.67;9.23;;;12.00;97.40;;;;;;5030011;28;20188;-72
2022/10/27 05:06:03;;;;;;;17.70;9.17;;;12.00;97.40;;;;;;5035339;28;20431;-72
2022/10/27 05:08:29;;;;;;;22.97;9.00;;;12.00;97.50;;;;;;5026904;28;20263;-71
2022/10/27 05:10:55;;;;;;;17.00;8.80;;;12.00;97.40;;;;;;5032221;28;20419;-70
2022/10/27 05:13:21;;;;;;;18.57;7.67;;;12.00;97.40;;;;;;5034800;28;20419;-69
2022/10/27 05:15:46;;;;;;;15.67;8.30;;;12.10;97.50;;;;;;5037601;28;20189;-71
2022/10/27 05:18:12;;;;;;;18.67;8.10;;;12.10;97.40;;;;;;5036653;28;20358;-72
2022/10/27 05:20:38;;;;;;;16.20;7.87;;;12.00;97.30;;;;;;5032588;28;20208;-72
2022/10/27 05:23:03;;;;;;;17.17;8.77;;;12.00;97.30;;;;;;5031624;28;20193;-71
2022/10/27 05:25:29;;;;;;;23.80;8.97;;;12.10;97.30;;;;;;5031135;28;20181;-72
2022/10/27 05:28:05;;;;;;;24.83;9.90;;;12.10;97.30;;;;;;5034674;28;20269;-70
2022/10/27 05:30:31;;;;;;;24.23;9.60;;;12.00;97.40;;;;;;5024963;28;20606;-71
2022/10/27 05:32:56;;;;;;;11.67;7.60;;;11.90;97.40;;;;;;5035370;28;20424;-70
2022/10/27 05:35:22;;;;;;;16.77;9.20;;;11.90;97.60;;;;;;5035953;28;20674;-71
2022/10/27 05:37:47;;;;;;;21.10;9.40;;;11.90;97.80;;;;;;5035913;28;20224;-71
2022/10/27 05:40:13;;;;;;;15.13;8.70;;;12.00;97.70;;;;;;5031912;28;20209;-70
2022/10/27 05:42:39;;;;;;;17.60;9.87;;;12.00;97.70;;;;;;5032861;28;20601;-71
2022/10/27 05:45:05;;;;;;;17.27;8.57;;;12.00;97.60;;;;;;5031438;28;20427;-72
2022/10/27 05:47:30;;;;;;;18.43;8.50;;;12.00;97.60;;;;;;5032162;28;20212;-72
2022/10/27 05:49:56;;;;;;;17.17;9.37;;;12.00;97.60;;;;;;5030504;28;21162;-70
2022/10/27 05:52:22;;;;;;;16.77;9.17;;;11.90;97.70;;;;;;5026888;28;20973;-70
2022/10/27 05:54:47;;;;;;;20.50;8.60;;;11.90;97.70;;;;;;5031643;28;20661;-72
2022/10/27 05:57:13;;;;;;;18.50;9.30;;;11.90;97.70;;;;;;5031901;28;20287;-70
2022/10/27 05:59:38;;;;;;;21.27;9.90;;;11.80;97.70;;;;;;5028978;28;20292;-72
2022/10/27 06:02:04;;;;;;;15.27;8.53;;;11.90;97.90;;;;;;5030560;28;20193;-73
2022/10/27 06:04:29;;;;;;;15.43;8.90;;;11.90;98.00;;;;;;5030812;28;20181;-71
2022/10/27 06:06:55;;;;;;;19.90;9.90;;;11.90;98.00;;;;;;5030760;28;20193;-73
2022/10/27 06:09:20;;;;;;;23.27;9.17;;;12.00;97.90;;;;;;5027713;28;20209;-71
2022/10/27 06:11:46;;;;;;;29.50;10.27;;;12.00;97.90;;;;;;5028825;28;20182;-74
2022/10/27 06:14:11;;;;;;;17.00;9.53;;;12.00;98.00;;;;;;5030328;28;20223;-73
2022/10/27 06:16:37;;;;;;;17.50;9.07;;;12.00;98.00;;;;;;5030914;28;20691;-73
2022/10/27 06:19:02;;;;;;;18.43;9.10;;;12.10;98.10;;;;;;5024409;28;20628;-72
2022/10/27 06:21:28;;;;;;;22.50;10.07;;;12.10;97.80;;;;;;5030349;28;20189;-72
2022/10/27 06:23:54;;;;;;;18.63;10.00;;;12.10;97.80;;;;;;5025394;28;20189;-72
2022/10/27 06:26:19;;;;;;;19.17;9.50;;;12.10;97.80;;;;;;5030314;28;20654;-72
2022/10/27 06:28:45;;;;;;;23.50;10.23;;;12.10;97.80;;;;;;5025302;28;20548;-72
2022/10/27 06:31:10;;;;;;;16.90;9.00;;;12.20;97.80;;;;;;5029683;28;20236;-73
2022/10/27 06:33:36;;;;;;;19.90;10.43;;;12.20;97.70;;;;;;5029660;28;20291;-72
2022/10/27 06:36:02;;;;;;;22.17;10.90;;;12.10;97.60;;;;;;5030314;28;20591;-72
2022/10/27 06:38:27;;;;;;;19.60;10.73;;;12.10;97.60;;;;;;5025625;28;20221;-72
2022/10/27 06:40:54;;;;;;;19.97;10.10;;;12.10;97.70;;;;;;5027675;28;20199;-70
2022/10/27 06:43:20;;;;;;;26.20;10.20;;;12.10;97.70;;;;;;5026215;28;20197;-70
2022/10/27 06:45:47;;;;;;;17.43;9.73;;;12.20;97.70;;;;;;5023797;28;20412;-69
2022/10/27 06:48:12;;;;;;;22.13;10.40;;;12.20;97.60;;;;;;5028786;28;20180;-70
2022/10/27 06:50:38;;;;;;;23.27;10.37;;;12.30;97.40;;;;;;5027389;28;20432;-71
2022/10/27 06:53:03;;;;;;;20.67;10.00;;;12.20;97.20;;;;;;5030953;28;20274;-70
2022/10/27 06:55:30;;;;;;;20.73;10.20;;;12.20;97.10;;;;;;5030609;28;20295;-71
2022/10/27 06:57:56;;;;;;;16.87;9.40;;;12.30;97.20;;;;;;5029025;28;20610;-71
2022/10/27 07:00:21;;;;;;;18.17;10.20;;;12.30;97.10;;;;;;5027760;28;20491;-70
2022/10/27 07:02:47;;;;;;;21.37;9.30;;;12.30;97.00;;;;;;5027751;28;20185;-69
2022/10/27 07:05:13;;;;;;;19.27;10.57;;;12.30;96.90;;;;;;5027259;28;20185;-71
2022/10/27 07:07:38;;;;;;;23.03;11.97;;;12.40;96.80;;;;;;5029970;28;20283;-69
2022/10/27 07:10:07;;;;;;;23.37;11.40;;;12.40;96.90;;;;;;5026667;28;20245;-70
2022/10/27 07:12:33;;;;;;;23.70;11.13;;;12.40;96.80;;;;;;5024638;28;20280;-70
2022/10/27 07:14:58;;;;;;;20.93;10.73;;;12.50;96.80;;;;;;5026139;28;20432;-69
2022/10/27 07:17:24;;;;;;;17.07;9.63;;;12.50;96.80;;;;;;5027557;28;20517;-70
2022/10/27 07:19:49;;;;;;;22.60;11.47;;;12.60;96.80;;;;;;5028123;28;20323;-71
2022/10/27 07:22:15;;;;;;;20.70;10.47;;;12.60;96.70;;;;;;5024576;28;20182;-70
2022/10/27 07:24:41;;;;;;;32.37;14.30;;;12.60;96.60;;;;;;5026998;28;20193;-69
2022/10/27 07:27:06;;;;;;;41.37;15.50;;;12.60;96.70;;;;;;5023471;28;20197;-70
2022/10/27 07:29:32;;;;;;;19.33;11.00;;;12.60;96.60;;;;;;5027917;28;20215;-71
2022/10/27 07:31:57;;;;;;;25.60;12.10;;;12.70;96.70;;;;;;5026320;28;20204;-71
2022/10/27 07:34:23;;;;;;;27.63;12.80;;;12.80;96.70;;;;;;5029793;28;20197;-70
2022/10/27 07:36:49;;;;;;;24.03;12.40;;;12.80;96.60;;;;;;5028586;28;20251;-70
2022/10/27 07:39:14;;;;;;;26.80;12.90;;;12.70;96.40;;;;;;5027259;28;20542;-70
2022/10/27 07:41:40;;;;;;;27.37;13.67;;;12.70;96.30;;;;;;5029922;28;20201;-68
2022/10/27 07:44:05;;;;;;;24.00;11.73;;;12.70;96.30;;;;;;5029717;28;20196;-71
2022/10/27 07:46:31;;;;;;;22.50;12.80;;;12.60;95.90;;;;;;5030036;28;20211;-69
2022/10/27 07:48:56;;;;;;;24.47;11.43;;;12.60;95.60;;;;;;5028285;28;20213;-71
2022/10/27 07:51:22;;;;;;;19.17;10.47;;;12.60;95.60;;;;;;5030019;28;20197;-70
2022/10/27 07:53:49;;;;;;;20.03;11.10;;;12.70;95.60;;;;;;5029806;28;20284;-69
2022/10/27 07:56:17;;;;;;;20.43;10.60;;;12.80;95.60;;;;;;5030945;28;20214;-70
2022/10/27 07:58:42;;;;;;;19.43;11.70;;;12.70;95.40;;;;;;5030159;28;20460;-72
2022/10/27 08:01:08;;;;;;;22.83;11.10;;;12.80;95.40;;;;;;5038791;28;20432;-71
2022/10/27 08:03:34;;;;;;;22.97;11.70;;;12.80;95.30;;;;;;5037052;28;20196;-69
2022/10/27 08:06:02;;;;;;;19.53;11.13;;;12.90;95.10;;;;;;5033861;28;20597;-69
2022/10/27 08:08:29;;;;;;;22.50;11.57;;;12.90;94.90;;;;;;5033139;28;20205;-71
2022/10/27 08:10:55;;;;;;;24.60;12.33;;;13.00;94.90;;;;;;5034818;28;20420;-70
2022/10/27 08:13:20;;;;;;;20.40;10.30;;;13.00;94.90;;;;;;5036886;28;20491;-70
2022/10/27 08:15:46;;;;;;;28.93;10.70;;;13.00;94.90;;;;;;5033650;28;20451;-70
2022/10/27 08:18:12;;;;;;;19.53;11.77;;;13.10;94.90;;;;;;5032222;28;20548;-70
2022/10/27 08:20:40;;;;;;;20.13;10.33;;;13.20;94.90;;;;;;5028828;28;20443;-70
2022/10/27 08:23:13;;;;;;;17.10;11.50;;;13.30;94.90;;;;;;5032791;28;20502;-70
2022/10/27 08:25:39;;;;;;;19.20;10.70;;;13.30;94.70;;;;;;5034495;28;20448;-70
2022/10/27 08:28:05;;;;;;;22.97;12.00;;;13.40;94.70;;;;;;5032765;28;20877;-70
2022/10/27 08:30:32;;;;;;;26.83;12.73;;;13.40;94.50;;;;;;5047294;28;20479;-72
2022/10/27 08:33:00;;;;;;;18.10;10.50;;;13.40;94.30;;;;;;5033440;28;20494;-70
2022/10/27 08:35:27;;;;;;;19.93;10.87;;;13.40;94.20;;;;;;5032942;28;20435;-71
2022/10/27 08:38:00;;;;;;;21.40;11.53;;;13.50;94.30;;;;;;5032842;28;20478;-69
2022/10/27 08:40:55;;;;;;;25.00;11.60;;;13.60;94.20;;;;;;5030395;28;20907;-69
2022/10/27 08:43:46;;;;;;;18.47;11.43;;;13.70;94.20;;;;;;5023931;28;20454;-72
2022/10/27 08:46:31;;;;;;;21.13;10.67;;;13.70;94.00;;;;;;5033171;28;20763;-72
2022/10/27 08:49:04;;;;;;;18.10;10.60;;;13.80;93.80;;;;;;5019800;28;20808;-69
2022/10/27 08:51:33;;;;;;;17.50;9.90;;;13.90;93.80;;;;;;5032666;28;20430;-70
2022/10/27 08:53:59;;;;;;;21.50;10.73;;;14.10;93.70;;;;;;5028654;28;20489;-72
2022/10/27 08:56:31;;;;;;;19.00;10.17;;;14.20;93.60;;;;;;5027578;28;20429;-69
2022/10/27 08:58:57;;;;;;;16.30;9.17;;;14.30;93.40;;;;;;5030348;28;20888;-71
2022/10/27 09:01:50;;;;;;;16.07;9.17;;;14.30;92.90;;;;;;5026917;28;20519;-71
2022/10/27 09:04:55;;;;;;;21.10;9.83;;;14.40;92.70;;;;;;5032808;28;20182;-70
2022/10/27 09:07:30;;;;;;;15.33;10.03;;;14.40;91.90;;;;;;5030194;28;20444;-71
2022/10/27 09:10:10;;;;;;;18.60;9.70;;;14.50;91.60;;;;;;5030863;28;20480;-71
2022/10/27 09:12:45;;;;;;;18.10;10.50;;;14.60;91.40;;;;;;5038091;28;20423;-71
2022/10/27 09:15:25;;;;;;;17.83;9.10;;;14.70;91.10;;;;;;5032869;28;20518;-71
2022/10/27 09:18:10;;;;;;;25.23;10.00;;;14.80;91.00;;;;;;5031833;28;20496;-69
2022/10/27 09:21:00;;;;;;;16.90;8.60;;;15.00;91.00;;;;;;5031705;28;20432;-70
2022/10/27 09:23:34;;;;;;;13.67;7.80;;;15.20;90.80;;;;;;5034755;28;20499;-70
2022/10/27 09:26:00;;;;;;;18.43;9.80;;;15.40;90.70;;;;;;5032601;28;20490;-71
2022/10/27 09:28:26;;;;;;;21.23;8.93;;;15.50;90.50;;;;;;5032886;28;20976;-70
2022/10/27 09:30:52;;;;;;;21.20;9.07;;;15.70;90.20;;;;;;5030535;28;20196;-69
2022/10/27 09:33:26;;;;;;;14.23;8.30;;;15.70;89.30;;;;;;5029322;28;20187;-69
2022/10/27 09:35:52;;;;;;;14.43;8.23;;;15.90;89.30;;;;;;5025404;28;20482;-69
2022/10/27 09:38:22;;;;;;;15.63;9.20;;;15.90;88.60;;;;;;5030250;28;20463;-73
2022/10/27 09:40:48;;;;;;;17.03;8.03;;;16.00;88.10;;;;;;5031121;28;20437;-71
2022/10/27 09:43:14;;;;;;;17.00;7.90;;;16.10;88.00;;;;;;5030636;28;20801;-69
2022/10/27 09:45:42;;;;;;;19.30;7.87;;;16.40;87.70;;;;;;5031184;28;20419;-71
2022/10/27 09:48:18;;;;;;;13.37;7.93;;;16.50;87.30;;;;;;5026234;28;20261;-70
2022/10/27 09:50:56;;;;;;;15.70;7.50;;;16.70;87.10;;;;;;5032538;28;20435;-69
2022/10/27 09:53:43;;;;;;;16.33;7.80;;;16.80;86.90;;;;;;5028804;28;20463;-70
2022/10/27 09:56:13;;;;;;;18.73;8.17;;;16.80;85.50;;;;;;5033860;28;20423;-70
2022/10/27 09:58:49;;;;;;;24.37;7.90;;;16.70;84.90;;;;;;5030172;28;20463;-72
2022/10/27 10:01:15;;;;;;;13.90;8.07;;;16.80;85.20;;;;;;5031396;28;20448;-70
2022/10/27 10:04:16;;;;;;;14.73;7.70;;;16.90;84.90;;;;;;5030704;28;20509;-69
2022/10/27 10:06:42;;;;;;;12.93;7.37;;;17.00;84.70;;;;;;5029860;28;20684;-71
2022/10/27 10:09:26;;;;;;;19.70;7.97;;;17.10;84.60;;;;;;5027464;28;20541;-70
2022/10/27 10:12:18;;;;;;;22.17;7.60;;;17.20;83.80;;;;;;5026792;28;20991;-70
2022/10/27 10:14:44;;;;;;;12.30;8.00;;;17.40;83.40;;;;;;5028115;28;20416;-72
2022/10/27 10:17:40;;;;;;;15.83;7.07;;;17.70;81.90;;;;;;5028129;28;20465;-71
2022/10/27 10:20:22;;;;;;;18.83;7.70;;;18.00;80.50;;;;;;5026423;28;20469;-70
2022/10/27 10:22:49;;;;;;;16.90;6.30;;;18.30;79.00;;;;;;5025144;28;20442;-73
2022/10/27 10:25:25;;;;;;;17.57;6.70;;;18.60;78.00;;;;;;5030446;28;20981;-72
2022/10/27 10:28:00;;;;;;;13.87;6.10;;;19.00;77.10;;;;;;5025973;28;20433;-72
2022/10/27 10:30:26;;;;;;;17.77;7.17;;;19.50;74.80;;;;;;5026793;28;20459;-70
2022/10/27 10:32:56;;;;;;;15.10;6.43;;;19.60;74.00;;;;;;5030622;28;20441;-72
2022/10/27 10:35:42;;;;;;;13.50;5.97;;;20.10;73.60;;;;;;5030736;28;20498;-68
2022/10/27 10:38:23;;;;;;;16.90;5.93;;;20.80;72.70;;;;;;5028746;28;20518;-71
2022/10/27 10:41:02;;;;;;;15.80;5.63;;;21.90;68.30;;;;;;5030886;28;20422;-72
2022/10/27 10:43:28;;;;;;;14.07;6.00;;;22.80;67.50;;;;;;5030392;28;20460;-72
2022/10/27 10:45:54;;;;;;;16.80;5.77;;;22.80;65.00;;;;;;5033290;28;20492;-72
2022/10/27 10:48:34;;;;;;;8.30;5.10;;;23.10;64.20;;;;;;5032928;28;20432;-72
2022/10/27 10:51:00;;;;;;;11.63;5.87;;;22.60;64.80;;;;;;5031180;28;20427;-72
2022/10/27 10:53:32;;;;;;;9.27;5.60;;;22.30;65.80;;;;;;5037474;28;20476;-69
2022/10/27 10:56:01;;;;;;;9.03;5.73;;;22.20;67.60;;;;;;5038088;28;20449;-70
2022/10/27 10:58:30;;;;;;;13.97;5.60;;;23.00;66.40;;;;;;5033644;28;20481;-71
2022/10/27 11:00:59;;;;;;;18.50;5.37;;;23.70;64.70;;;;;;5033973;28;20429;-70
2022/10/27 11:03:29;;;;;;;10.77;4.87;;;24.00;61.30;;;;;;5032713;28;20420;-70
2022/10/27 11:05:58;;;;;;;9.27;5.87;;;24.40;61.90;;;;;;5029985;28;20454;-71
2022/10/27 11:08:32;;;;;;;12.10;5.67;;;24.80;59.20;;;;;;5030197;28;20433;-70
2022/10/27 11:10:58;;;;;;;16.80;5.83;;;25.00;60.60;;;;;;5032770;28;20418;-72
2022/10/27 11:13:37;;;;;;;7.90;4.70;;;25.50;57.20;;;;;;5028339;28;20434;-72
2022/10/27 11:16:06;;;;;;;18.87;5.60;;;25.60;56.90;;;;;;5031748;28;20429;-73
2022/10/27 11:18:50;;;;;;;11.37;3.97;;;26.10;56.10;;;;;;5026009;28;20536;-72
2022/10/27 11:22:13;;;;;;;9.60;4.20;;;26.10;52.80;;;;;;5030981;28;20459;-70
2022/10/27 11:24:43;;;;;;;11.37;4.90;;;26.40;54.00;;;;;;5011064;28;20477;-70
2022/10/27 11:27:18;;;;;;;5.87;3.03;;;26.70;53.70;;;;;;5011898;28;20439;-72
2022/10/27 11:29:49;;;;;;;9.13;3.40;;;26.70;50.90;;;;;;5011826;28;21159;-73
2022/10/27 11:32:26;;;;;;;9.70;3.93;;;26.60;51.40;;;;;;5009750;28;20441;-71
2022/10/27 11:35:04;;;;;;;11.17;3.87;;;26.80;51.20;;;;;;4988838;28;20470;-70
2022/10/27 11:37:54;;;;;;;16.50;4.23;;;26.50;51.30;;;;;;5007820;28;20562;-71
2022/10/27 11:40:55;;;;;;;13.83;3.50;;;26.50;51.40;;;;;;5003617;28;20470;-72
2022/10/27 11:43:38;;;;;;;5.67;3.20;;;26.30;52.40;;;;;;5007149;28;20451;-70
2022/10/27 11:46:37;;;;;;;15.70;4.33;;;26.40;52.10;;;;;;5001935;28;20466;-71
2022/10/27 11:49:12;;;;;;;7.43;4.10;;;26.40;52.20;;;;;;5005608;28;20558;-72
2022/10/27 11:51:59;;;;;;;9.83;3.47;;;26.20;53.60;;;;;;5007471;28;20801;-71
2022/10/27 11:54:25;;;;;;;7.07;3.60;;;26.60;53.20;;;;;;5006313;28;20451;-74
2022/10/27 11:57:12;;;;;;;8.83;3.50;;;26.90;52.50;;;;;;5032417;28;20476;-71
2022/10/27 11:59:41;;;;;;;10.43;2.93;;;27.10;50.90;;;;;;5036919;28;20534;-71
2022/10/27 12:02:53;;;;;;;11.80;4.00;;;27.10;49.90;;;;;;5035319;28;20497;-72
2022/10/27 12:05:35;;;;;;;9.10;3.43;;;27.10;50.30;;;;;;5029992;28;20905;-71
2022/10/27 12:08:13;;;;;;;9.90;3.60;;;27.00;50.30;;;;;;5032632;28;20427;-71
2022/10/27 12:11:00;;;;;;;8.80;3.33;;;26.70;51.30;;;;;;5032640;28;20443;-71
2022/10/27 12:13:28;;;;;;;7.27;3.33;;;26.60;52.10;;;;;;5031297;28;20442;-72
2022/10/27 12:15:59;;;;;;;12.10;3.90;;;26.60;52.50;;;;;;5028641;28;20438;-70
2022/10/27 12:18:40;;;;;;;9.90;3.40;;;26.70;52.50;;;;;;5032908;28;20534;-71
2022/10/27 12:21:24;;;;;;;10.20;3.47;;;26.90;52.40;;;;;;5030951;28;20423;-71
2022/10/27 12:24:08;;;;;;;9.47;3.60;;;27.00;51.30;;;;;;5032642;28;20514;-69
2022/10/27 12:26:51;;;;;;;6.77;3.40;;;26.90;51.80;;;;;;5033802;28;20428;-71
2022/10/27 12:29:17;;;;;;;6.53;3.47;;;27.00;50.50;;;;;;5035720;28;20498;-71
2022/10/27 12:31:56;;;;;;;5.43;3.17;;;27.00;50.50;;;;;;5035371;28;20435;-71
2022/10/27 12:34:30;;;;;;;10.07;3.47;;;26.80;51.20;;;;;;5033009;28;20485;-71
2022/10/27 12:37:04;;;;;;;10.93;4.20;;;26.90;50.90;;;;;;5032650;28;20500;-70
2022/10/27 12:39:35;;;;;;;5.23;2.90;;;26.50;50.50;;;;;;5031705;28;20436;-70
2022/10/27 12:42:14;;;;;;;9.73;3.20;;;26.60;52.00;;;;;;5034186;28;20868;-71
2022/10/27 12:44:54;;;;;;;6.90;3.47;;;26.90;51.70;;;;;;5030830;28;20421;-72
2022/10/27 12:47:47;;;;;;;10.00;4.10;;;27.20;51.00;;;;;;5032714;28;20433;-71
2022/10/27 12:50:36;;;;;;;5.80;3.20;;;27.60;51.20;;;;;;5030507;28;20467;-71
2022/10/27 12:53:37;;;;;;;8.20;3.40;;;27.80;49.90;;;;;;5031443;28;20432;-71